Time;durP1;ratioP1;P1;durP2;ratioP2;P2;SDS_P1;SDS_P2;PMS_P1;PMS_P2;Temp;Humidity;BMP_temperature;BMP_pressure;BME280_temperature;BME280_humidity;BME280_pressure;Samples;Min_cycle;Max_cycle;Signal;HPM_P1;HPM_P2
2021/08/14 00:02:14;;;;;;;2.40;2.05;;;28.20;57.00;;;;;;5045817;28;20036;-65
2021/08/14 00:04:40;;;;;;;2.40;1.90;;;28.20;57.10;;;;;;5048590;28;20178;-66
2021/08/14 00:07:05;;;;;;;2.50;1.98;;;28.20;57.10;;;;;;5052223;28;20029;-63
2021/08/14 00:09:34;;;;;;;2.70;2.08;;;28.20;57.10;;;;;;5044552;28;20032;-64
2021/08/14 00:12:04;;;;;;;2.70;2.10;;;28.10;57.00;;;;;;5041246;28;20040;-65
2021/08/14 00:14:30;;;;;;;2.80;1.95;;;28.10;57.00;;;;;;5039605;28;20032;-65
2021/08/14 00:16:55;;;;;;;2.35;1.80;;;28.10;57.50;;;;;;5045103;28;20028;-62
2021/08/14 00:19:21;;;;;;;3.25;2.35;;;28.10;57.00;;;;;;5038200;28;20337;-66
2021/08/14 00:21:47;;;;;;;2.70;1.90;;;28.10;57.00;;;;;;5046877;28;20052;-65
2021/08/14 00:24:12;;;;;;;2.50;1.92;;;28.10;57.00;;;;;;5048744;28;20021;-62
2021/08/14 00:26:38;;;;;;;2.17;1.75;;;28.10;57.00;;;;;;5049258;28;20036;-65
2021/08/14 00:29:04;;;;;;;2.50;1.90;;;28.10;57.00;;;;;;5049616;28;20158;-66
2021/08/14 00:31:29;;;;;;;2.70;1.98;;;28.00;57.50;;;;;;5048817;28;20440;-66
2021/08/14 00:33:56;;;;;;;2.95;2.10;;;28.10;57.10;;;;;;5049313;28;20374;-66
2021/08/14 00:36:22;;;;;;;3.38;1.90;;;28.00;57.00;;;;;;5063065;28;20061;-61
2021/08/14 00:38:50;;;;;;;2.83;2.15;;;28.00;57.00;;;;;;5036461;28;20126;-61
2021/08/14 00:41:16;;;;;;;2.70;1.98;;;28.00;57.00;;;;;;5044735;28;20162;-66
2021/08/14 00:43:45;;;;;;;2.67;2.05;;;28.00;57.00;;;;;;5048052;28;20071;-60
2021/08/14 00:46:11;;;;;;;2.75;2.08;;;28.00;57.10;;;;;;5050649;28;20152;-60
2021/08/14 00:48:37;;;;;;;2.70;2.00;;;28.00;57.00;;;;;;5043438;28;20408;-65
2021/08/14 00:51:08;;;;;;;2.70;2.15;;;28.00;57.10;;;;;;5040966;28;20021;-64
2021/08/14 00:53:34;;;;;;;2.58;2.10;;;28.00;57.00;;;;;;5047056;28;20025;-64
2021/08/14 00:56:00;;;;;;;3.97;2.10;;;28.00;57.00;;;;;;5049193;28;20676;-62
2021/08/14 00:58:26;;;;;;;2.45;1.92;;;28.00;57.10;;;;;;5049999;28;20141;-60
2021/08/14 01:00:52;;;;;;;2.90;2.10;;;28.00;57.10;;;;;;5060263;28;20512;-64
2021/08/14 01:03:19;;;;;;;2.53;2.00;;;28.00;57.10;;;;;;5046978;28;20021;-64
2021/08/14 01:05:48;;;;;;;3.90;2.40;;;28.00;57.10;;;;;;5036595;28;20340;-62
2021/08/14 01:08:15;;;;;;;2.97;2.15;;;28.00;57.10;;;;;;5048756;28;20099;-66
2021/08/14 01:10:41;;;;;;;2.70;2.22;;;27.90;57.00;;;;;;5046306;28;20369;-62
2021/08/14 01:13:07;;;;;;;2.63;2.03;;;27.90;57.00;;;;;;5054125;28;20432;-65
2021/08/14 01:15:33;;;;;;;2.63;2.15;;;27.90;57.00;;;;;;5058803;28;20024;-65
2021/08/14 01:17:59;;;;;;;2.92;2.00;;;27.90;57.00;;;;;;5042862;28;20060;-66
2021/08/14 01:20:25;;;;;;;2.97;2.10;;;27.90;57.00;;;;;;5064619;28;20028;-62
2021/08/14 01:22:51;;;;;;;2.40;1.90;;;27.90;57.00;;;;;;5049111;28;20183;-65
2021/08/14 01:25:19;;;;;;;2.67;2.10;;;27.90;57.00;;;;;;5051955;28;20040;-62
2021/08/14 01:27:45;;;;;;;2.67;2.00;;;27.90;57.00;;;;;;5048225;28;20476;-62
2021/08/14 01:30:12;;;;;;;2.50;2.05;;;27.90;57.00;;;;;;5060235;28;20043;-66
2021/08/14 01:32:38;;;;;;;2.97;2.15;;;27.90;57.00;;;;;;5053286;28;20064;-66
2021/08/14 01:35:04;;;;;;;2.90;2.30;;;27.90;57.00;;;;;;5055107;28;20420;-66
2021/08/14 01:37:31;;;;;;;2.72;2.00;;;27.90;57.00;;;;;;5038985;28;20069;-64
2021/08/14 01:40:00;;;;;;;2.70;2.00;;;27.90;57.00;;;;;;5035602;28;20578;-63
2021/08/14 01:42:26;;;;;;;2.88;2.30;;;27.90;57.00;;;;;;5049031;28;20063;-66
2021/08/14 01:44:53;;;;;;;2.92;2.08;;;27.80;57.00;;;;;;5045738;28;20544;-66
2021/08/14 01:47:19;;;;;;;2.97;2.10;;;27.80;57.00;;;;;;5046185;28;20132;-62
2021/08/14 01:49:45;;;;;;;2.72;2.13;;;27.80;57.00;;;;;;5037380;28;20396;-66
2021/08/14 01:52:15;;;;;;;2.75;2.20;;;27.80;57.00;;;;;;5046950;28;20123;-64
2021/08/14 01:54:41;;;;;;;2.80;2.20;;;27.80;57.00;;;;;;5046082;28;20493;-61
2021/08/14 01:57:08;;;;;;;2.75;2.28;;;27.80;57.00;;;;;;5048479;28;20029;-61
2021/08/14 01:59:34;;;;;;;2.80;2.30;;;27.80;57.50;;;;;;5048509;28;20492;-65
2021/08/14 02:02:01;;;;;;;3.22;2.40;;;27.80;57.00;;;;;;5045954;28;20048;-63
2021/08/14 02:04:27;;;;;;;2.72;2.20;;;27.80;57.00;;;;;;5046931;28;20444;-65
2021/08/14 02:06:53;;;;;;;3.03;2.10;;;27.80;57.00;;;;;;5052292;28;20021;-66
2021/08/14 02:09:18;;;;;;;3.30;2.50;;;27.80;57.00;;;;;;5050587;28;20044;-63
2021/08/14 02:11:44;;;;;;;2.90;2.20;;;27.80;57.00;;;;;;5043537;28;20040;-61
2021/08/14 02:14:11;;;;;;;2.58;2.10;;;27.80;57.00;;;;;;5032603;28;20021;-64
2021/08/14 02:16:37;;;;;;;2.47;2.08;;;27.80;57.00;;;;;;5040111;28;20095;-61
2021/08/14 02:19:03;;;;;;;3.00;2.05;;;27.80;57.00;;;;;;5051737;28;20040;-66
2021/08/14 02:21:29;;;;;;;2.50;2.10;;;27.80;57.00;;;;;;5047616;28;20372;-66
2021/08/14 02:23:55;;;;;;;2.42;2.13;;;27.80;57.00;;;;;;5046035;28;20016;-65
2021/08/14 02:26:21;;;;;;;3.13;2.35;;;27.80;57.00;;;;;;5046891;28;20068;-66
2021/08/14 02:28:47;;;;;;;3.10;2.38;;;27.80;57.00;;;;;;5047438;28;20032;-66
2021/08/14 02:31:12;;;;;;;2.60;2.00;;;27.70;56.90;;;;;;5046258;28;20040;-62
2021/08/14 02:33:38;;;;;;;3.35;2.40;;;27.70;56.90;;;;;;5045012;28;20402;-64
2021/08/14 02:36:05;;;;;;;2.50;2.13;;;27.70;56.90;;;;;;5047308;28;20083;-66
2021/08/14 02:38:31;;;;;;;2.80;2.20;;;27.70;56.90;;;;;;5052728;28;20514;-63
2021/08/14 02:40:57;;;;;;;2.50;2.20;;;27.70;56.90;;;;;;5063359;28;20032;-66
2021/08/14 02:43:23;;;;;;;3.00;2.40;;;27.70;56.90;;;;;;5053086;28;20628;-65
2021/08/14 02:45:48;;;;;;;2.78;2.22;;;27.70;56.90;;;;;;5047251;28;20698;-66
2021/08/14 02:48:15;;;;;;;3.03;2.50;;;27.70;56.90;;;;;;5045094;28;20032;-64
2021/08/14 02:50:42;;;;;;;2.58;2.10;;;27.70;56.90;;;;;;5025660;28;20030;-65
2021/08/14 02:53:08;;;;;;;2.65;2.05;;;27.70;56.90;;;;;;5043230;28;20040;-62
2021/08/14 02:55:34;;;;;;;3.20;2.50;;;27.70;56.90;;;;;;5045729;28;20044;-62
2021/08/14 02:57:59;;;;;;;3.25;2.53;;;27.70;56.90;;;;;;5044775;28;20025;-66
2021/08/14 03:00:25;;;;;;;2.63;2.30;;;27.70;56.90;;;;;;5046028;28;20442;-66
2021/08/14 03:02:50;;;;;;;3.55;2.50;;;27.70;56.90;;;;;;5044182;28;20166;-63
2021/08/14 03:05:16;;;;;;;2.95;2.53;;;27.70;56.90;;;;;;5045777;28;20492;-66
2021/08/14 03:07:42;;;;;;;2.90;2.38;;;27.70;56.90;;;;;;5049600;28;20024;-60
2021/08/14 03:10:08;;;;;;;3.08;2.50;;;27.70;56.90;;;;;;5032701;28;20018;-61
2021/08/14 03:12:34;;;;;;;3.00;2.35;;;27.60;56.80;;;;;;5031535;28;20036;-66
2021/08/14 03:14:59;;;;;;;2.97;2.67;;;27.70;57.00;;;;;;5045921;28;20078;-62
2021/08/14 03:17:25;;;;;;;3.28;2.30;;;27.60;56.90;;;;;;5051412;28;20031;-65
2021/08/14 03:19:51;;;;;;;3.03;2.50;;;27.60;56.90;;;;;;5056116;28;20021;-61
2021/08/14 03:22:16;;;;;;;3.13;2.53;;;27.60;56.80;;;;;;5045918;28;20025;-67
2021/08/14 03:24:42;;;;;;;3.08;2.28;;;27.60;56.90;;;;;;5046349;28;20427;-61
2021/08/14 03:27:08;;;;;;;2.80;2.30;;;27.60;56.80;;;;;;5045851;28;20032;-63
2021/08/14 03:29:33;;;;;;;3.15;2.50;;;27.60;56.80;;;;;;5045692;28;20033;-61
2021/08/14 03:32:00;;;;;;;2.90;2.38;;;27.60;56.80;;;;;;5047539;28;20115;-64
2021/08/14 03:34:25;;;;;;;3.00;2.60;;;27.60;56.80;;;;;;5043503;28;20416;-60
2021/08/14 03:36:51;;;;;;;3.58;2.55;;;27.60;56.80;;;;;;5039948;28;20035;-62
2021/08/14 03:39:17;;;;;;;3.03;2.50;;;27.60;56.90;;;;;;5042908;28;20519;-63
2021/08/14 03:41:43;;;;;;;3.53;2.50;;;27.60;56.90;;;;;;5045976;28;20021;-60
2021/08/14 03:44:08;;;;;;;2.97;2.50;;;27.60;56.90;;;;;;5049570;28;20086;-62
2021/08/14 03:46:34;;;;;;;2.83;2.45;;;27.60;56.90;;;;;;5058761;28;20044;-60
2021/08/14 03:49:00;;;;;;;3.10;2.45;;;27.60;56.90;;;;;;5043807;28;20033;-66
2021/08/14 03:51:25;;;;;;;2.70;2.20;;;27.60;56.90;;;;;;5044806;28;20109;-61
2021/08/14 03:53:51;;;;;;;3.08;2.38;;;27.50;56.80;;;;;;5045753;28;20512;-64
2021/08/14 03:56:16;;;;;;;2.90;2.20;;;27.50;56.80;;;;;;5048976;28;20017;-61
2021/08/14 03:58:42;;;;;;;2.90;2.35;;;27.50;56.80;;;;;;5050279;28;20474;-65
2021/08/14 04:01:08;;;;;;;2.53;2.22;;;27.50;56.80;;;;;;5041322;28;20034;-60
2021/08/14 04:03:33;;;;;;;3.10;2.33;;;27.50;56.80;;;;;;5029745;28;20485;-63
2021/08/14 04:05:59;;;;;;;3.20;2.60;;;27.50;56.80;;;;;;5038451;28;20029;-65
2021/08/14 04:08:25;;;;;;;3.50;2.55;;;27.50;56.80;;;;;;5056411;28;20079;-62
2021/08/14 04:10:51;;;;;;;2.60;2.35;;;27.50;56.80;;;;;;5045142;28;20112;-66
2021/08/14 04:13:17;;;;;;;2.83;2.25;;;27.50;56.80;;;;;;5045142;28;20140;-62
2021/08/14 04:15:43;;;;;;;3.05;2.53;;;27.50;56.80;;;;;;5044710;28;20504;-65
2021/08/14 04:18:09;;;;;;;3.20;2.50;;;27.50;56.80;;;;;;5049188;28;20040;-66
2021/08/14 04:20:35;;;;;;;2.90;2.38;;;27.50;56.80;;;;;;5045989;28;20383;-65
2021/08/14 04:23:00;;;;;;;2.90;2.33;;;27.50;56.70;;;;;;5050030;28;20639;-65
2021/08/14 04:25:26;;;;;;;3.10;2.40;;;27.50;56.80;;;;;;5056805;28;20112;-61
2021/08/14 04:27:52;;;;;;;3.10;2.42;;;27.50;56.80;;;;;;5045558;28;20024;-65
2021/08/14 04:30:17;;;;;;;3.35;2.65;;;27.50;56.80;;;;;;5056360;28;20124;-65
2021/08/14 04:32:43;;;;;;;3.83;2.55;;;27.50;56.80;;;;;;5048640;28;20434;-62
2021/08/14 04:35:11;;;;;;;2.90;2.50;;;27.50;56.70;;;;;;5049124;28;20036;-66
2021/08/14 04:37:37;;;;;;;2.78;2.30;;;27.50;56.70;;;;;;5049495;28;20036;-66
2021/08/14 04:40:05;;;;;;;3.70;2.90;;;27.50;56.70;;;;;;5059624;28;20481;-61
2021/08/14 04:42:31;;;;;;;3.40;2.70;;;27.40;55.70;;;;;;5054459;28;20110;-65
2021/08/14 04:44:57;;;;;;;4.03;3.40;;;27.40;56.10;;;;;;5051036;28;20104;-63
2021/08/14 04:47:22;;;;;;;4.78;3.90;;;27.40;55.00;;;;;;5049673;28;20729;-62
2021/08/14 04:49:48;;;;;;;4.55;3.80;;;27.40;54.50;;;;;;5050718;28;20055;-62
2021/08/14 04:52:14;;;;;;;5.05;3.70;;;27.30;53.80;;;;;;5053197;28;20117;-65
2021/08/14 04:54:40;;;;;;;4.00;3.35;;;27.30;53.40;;;;;;5057398;28;20029;-62
2021/08/14 04:57:05;;;;;;;4.97;3.72;;;27.20;53.20;;;;;;5050749;28;20029;-67
2021/08/14 04:59:31;;;;;;;3.85;3.35;;;27.20;53.00;;;;;;5052951;28;20029;-63
2021/08/14 05:01:57;;;;;;;5.65;3.80;;;27.20;52.90;;;;;;5051673;28;20028;-64
2021/08/14 05:04:23;;;;;;;10.30;9.30;;;27.20;52.80;;;;;;5052440;28;20093;-63
2021/08/14 05:06:50;;;;;;;10.00;7.90;;;27.20;52.50;;;;;;5049166;28;20183;-60
2021/08/14 05:09:16;;;;;;;8.23;7.43;;;27.10;52.20;;;;;;5053157;28;20100;-63
2021/08/14 05:11:41;;;;;;;8.13;6.82;;;27.00;52.30;;;;;;5042943;28;20033;-63
2021/08/14 05:14:07;;;;;;;8.00;7.20;;;27.00;52.50;;;;;;5051291;28;20025;-61
2021/08/14 05:16:34;;;;;;;7.85;7.15;;;27.00;52.80;;;;;;5049796;28;20144;-61
2021/08/14 05:19:00;;;;;;;7.53;6.72;;;26.90;53.00;;;;;;5061819;28;20032;-65
2021/08/14 05:21:26;;;;;;;7.47;6.78;;;26.90;53.00;;;;;;5048876;28;20027;-67
2021/08/14 05:23:51;;;;;;;7.57;6.88;;;26.90;53.10;;;;;;5048460;28;20120;-64
2021/08/14 05:26:17;;;;;;;7.53;6.82;;;26.90;53.10;;;;;;5044946;28;20090;-64
2021/08/14 05:28:43;;;;;;;7.55;6.85;;;26.90;53.30;;;;;;5048970;28;20275;-65
2021/08/14 05:31:08;;;;;;;8.07;6.90;;;26.90;53.30;;;;;;5050633;28;20044;-64
2021/08/14 05:33:34;;;;;;;6.95;6.35;;;26.90;53.40;;;;;;5048143;28;20033;-65
2021/08/14 05:36:00;;;;;;;7.10;6.40;;;26.90;53.50;;;;;;5049136;28;20040;-67
2021/08/14 05:38:25;;;;;;;6.88;6.22;;;26.90;53.60;;;;;;5047934;28;20182;-59
2021/08/14 05:40:51;;;;;;;6.72;6.13;;;26.90;53.70;;;;;;5046901;28;20400;-65
2021/08/14 05:43:16;;;;;;;6.65;6.05;;;26.90;53.70;;;;;;5050930;28;20121;-62
2021/08/14 05:45:42;;;;;;;6.50;5.90;;;26.90;53.80;;;;;;5042271;28;20033;-65
2021/08/14 05:48:08;;;;;;;6.30;5.70;;;26.90;53.90;;;;;;5038281;28;20445;-67
2021/08/14 05:50:34;;;;;;;6.47;5.88;;;26.90;54.00;;;;;;5047429;28;20121;-63
2021/08/14 05:52:59;;;;;;;5.95;5.35;;;26.90;54.00;;;;;;5048099;28;20029;-66
2021/08/14 05:55:25;;;;;;;6.65;6.05;;;26.90;54.10;;;;;;5048019;28;20362;-62
2021/08/14 05:57:53;;;;;;;6.30;5.70;;;26.90;54.10;;;;;;5047557;28;20055;-62
2021/08/14 06:00:20;;;;;;;7.07;6.40;;;26.90;54.10;;;;;;5047017;28;20021;-65
2021/08/14 06:02:46;;;;;;;5.95;5.32;;;26.90;54.20;;;;;;5048162;28;20035;-66
2021/08/14 06:05:11;;;;;;;6.35;5.75;;;26.90;54.20;;;;;;5066785;28;20396;-61
2021/08/14 06:07:37;;;;;;;6.70;5.65;;;26.90;54.30;;;;;;5051077;28;20246;-62
2021/08/14 06:10:06;;;;;;;6.30;5.70;;;26.90;54.40;;;;;;5046545;28;20021;-63
2021/08/14 06:12:31;;;;;;;6.70;6.00;;;26.90;54.40;;;;;;5046063;28;20064;-66
2021/08/14 06:14:57;;;;;;;6.13;5.53;;;26.90;54.40;;;;;;5063699;28;20257;-63
2021/08/14 06:17:22;;;;;;;6.03;5.43;;;26.90;54.50;;;;;;5063767;28;20341;-64
2021/08/14 06:19:48;;;;;;;6.05;5.45;;;26.90;54.50;;;;;;5050323;28;20025;-62
2021/08/14 06:22:13;;;;;;;6.13;5.53;;;26.90;54.60;;;;;;5046599;28;20033;-62
2021/08/14 06:24:39;;;;;;;6.10;5.50;;;26.90;54.60;;;;;;5048476;28;20060;-62
2021/08/14 06:27:05;;;;;;;5.72;5.22;;;26.80;54.50;;;;;;5061062;28;20056;-66
2021/08/14 06:29:31;;;;;;;5.55;5.05;;;26.90;54.60;;;;;;5050123;28;20525;-66
2021/08/14 06:31:56;;;;;;;5.95;5.40;;;26.90;54.60;;;;;;5045655;28;20100;-61
2021/08/14 06:34:22;;;;;;;5.68;4.90;;;26.90;54.70;;;;;;5046233;28;20326;-66
2021/08/14 06:36:47;;;;;;;6.00;5.40;;;26.90;54.70;;;;;;5048470;28;20087;-67
2021/08/14 06:39:13;;;;;;;6.00;5.40;;;26.90;54.80;;;;;;5049974;28;20066;-65
2021/08/14 06:41:38;;;;;;;5.85;5.28;;;26.90;54.80;;;;;;5033941;28;20485;-63
2021/08/14 06:44:04;;;;;;;5.70;5.20;;;26.90;54.80;;;;;;5045351;28;20308;-66
2021/08/14 06:46:30;;;;;;;5.65;5.15;;;26.90;54.80;;;;;;5047210;28;20024;-63
2021/08/14 06:48:55;;;;;;;5.35;4.85;;;26.90;54.80;;;;;;5045163;28;20376;-61
2021/08/14 06:51:21;;;;;;;6.15;5.40;;;26.90;54.90;;;;;;5046269;28;20067;-62
2021/08/14 06:53:48;;;;;;;5.60;5.10;;;26.90;54.90;;;;;;5049192;28;20067;-66
2021/08/14 06:56:14;;;;;;;5.90;5.20;;;26.90;54.90;;;;;;5041134;28;20058;-65
2021/08/14 06:58:39;;;;;;;6.22;5.63;;;26.80;54.90;;;;;;5048027;28;20183;-61
2021/08/14 07:01:05;;;;;;;5.63;5.13;;;26.90;55.00;;;;;;5047917;28;20520;-60
2021/08/14 07:03:32;;;;;;;5.40;4.90;;;26.80;54.90;;;;;;5046807;28;20100;-63
2021/08/14 07:05:58;;;;;;;5.65;5.13;;;26.90;55.00;;;;;;5048268;28;20068;-62
2021/08/14 07:08:23;;;;;;;6.40;5.80;;;26.90;55.00;;;;;;5047368;28;20452;-62
2021/08/14 07:10:49;;;;;;;5.53;5.03;;;26.80;55.00;;;;;;5044421;28;20033;-60
2021/08/14 07:13:15;;;;;;;5.50;5.00;;;26.90;55.10;;;;;;5047318;28;20187;-62
2021/08/14 07:15:40;;;;;;;5.55;4.90;;;26.90;55.10;;;;;;5046015;28;20028;-60
2021/08/14 07:18:06;;;;;;;5.13;4.63;;;26.80;55.00;;;;;;5036437;28;20033;-66
2021/08/14 07:20:31;;;;;;;5.20;4.70;;;26.90;55.10;;;;;;5041437;28;20052;-66
2021/08/14 07:22:57;;;;;;;5.63;5.13;;;26.90;55.10;;;;;;5047376;28;20346;-66
2021/08/14 07:25:23;;;;;;;5.20;4.70;;;26.90;55.20;;;;;;5052975;28;20021;-66
2021/08/14 07:27:49;;;;;;;5.28;4.78;;;26.90;55.70;;;;;;5044897;28;20539;-64
2021/08/14 07:30:15;;;;;;;5.38;4.88;;;26.90;55.20;;;;;;5060935;28;20426;-66
2021/08/14 07:32:41;;;;;;;6.13;5.03;;;26.90;55.20;;;;;;5045223;28;20054;-60
2021/08/14 07:35:07;;;;;;;5.97;5.35;;;26.90;55.20;;;;;;5045793;28;20041;-63
2021/08/14 07:37:33;;;;;;;5.13;4.63;;;26.80;55.20;;;;;;5044544;28;20033;-59
2021/08/14 07:39:59;;;;;;;5.47;4.97;;;26.80;55.20;;;;;;5043733;28;20018;-66
2021/08/14 07:42:24;;;;;;;5.22;4.72;;;26.80;55.20;;;;;;5043905;28;20056;-66
2021/08/14 07:44:50;;;;;;;5.50;5.00;;;26.90;55.30;;;;;;5043843;28;20033;-66
2021/08/14 07:47:16;;;;;;;5.57;5.07;;;26.90;55.30;;;;;;5040851;28;20030;-65
2021/08/14 07:49:42;;;;;;;5.18;4.60;;;26.80;55.30;;;;;;5032054;28;20143;-64
2021/08/14 07:52:08;;;;;;;5.22;4.72;;;26.90;55.40;;;;;;5045421;28;20059;-65
2021/08/14 07:54:34;;;;;;;5.47;4.68;;;26.90;55.40;;;;;;5045439;28;20029;-64
2021/08/14 07:57:00;;;;;;;4.90;4.40;;;26.80;55.30;;;;;;5042161;28;21264;-67
2021/08/14 07:59:25;;;;;;;5.93;4.57;;;26.90;55.40;;;;;;5038093;28;20060;-67
2021/08/14 08:01:51;;;;;;;5.15;4.65;;;26.90;55.50;;;;;;5043363;28;20832;-65
2021/08/14 08:04:17;;;;;;;5.18;4.65;;;26.80;55.90;;;;;;5026970;28;20057;-62
2021/08/14 08:06:42;;;;;;;5.28;4.78;;;26.80;55.40;;;;;;5040913;28;20040;-68
2021/08/14 08:09:08;;;;;;;5.10;4.55;;;26.90;55.50;;;;;;5039208;28;20033;-65
2021/08/14 08:11:34;;;;;;;4.93;4.43;;;26.90;55.50;;;;;;5038585;28;20453;-63
2021/08/14 08:13:59;;;;;;;5.03;4.53;;;26.90;55.50;;;;;;5042532;28;20205;-62
2021/08/14 08:16:25;;;;;;;5.10;4.60;;;26.90;55.50;;;;;;5042060;28;20044;-67
2021/08/14 08:18:50;;;;;;;5.15;4.65;;;26.90;55.60;;;;;;5026895;28;20043;-64
2021/08/14 08:21:16;;;;;;;5.07;4.50;;;26.80;55.50;;;;;;5036559;28;20033;-63
2021/08/14 08:23:42;;;;;;;4.97;4.47;;;26.90;55.60;;;;;;5038615;28;20032;-66
2021/08/14 08:26:07;;;;;;;5.00;4.47;;;26.90;55.60;;;;;;5038632;28;20296;-62
2021/08/14 08:28:33;;;;;;;5.35;4.85;;;26.90;55.60;;;;;;5039894;28;20395;-64
2021/08/14 08:30:59;;;;;;;5.20;4.70;;;26.80;55.50;;;;;;5040704;28;20472;-65
2021/08/14 08:33:25;;;;;;;4.63;4.22;;;26.90;55.60;;;;;;5042242;28;20044;-67
2021/08/14 08:35:50;;;;;;;5.28;4.78;;;26.80;55.60;;;;;;5043743;28;20461;-65
2021/08/14 08:38:16;;;;;;;4.95;4.47;;;26.90;55.70;;;;;;5040143;28;20029;-65
2021/08/14 08:40:42;;;;;;;5.45;4.95;;;26.90;55.70;;;;;;5043153;28;20048;-65
2021/08/14 08:43:09;;;;;;;4.95;4.32;;;26.90;55.70;;;;;;5038070;28;20515;-61
2021/08/14 08:45:34;;;;;;;5.03;4.30;;;26.90;55.70;;;;;;5048739;28;20013;-62
2021/08/14 08:48:04;;;;;;;4.95;4.45;;;26.90;55.70;;;;;;5047442;28;20086;-62
2021/08/14 08:50:30;;;;;;;;;;;26.90;55.70;;;;;;5048047;28;20108;-67
2021/08/14 08:52:56;;;;;;;4.63;4.20;;;26.90;55.90;;;;;;5052835;28;20540;-64
2021/08/14 08:55:23;;;;;;;4.88;4.38;;;26.90;55.80;;;;;;5049635;28;20040;-68
2021/08/14 08:57:49;;;;;;;5.03;4.57;;;26.90;55.70;;;;;;5048256;28;20643;-66
2021/08/14 09:00:17;;;;;;;5.15;4.65;;;26.90;55.70;;;;;;5054117;28;20025;-65
2021/08/14 09:03:03;;;;;;;4.97;4.47;;;26.90;55.70;;;;;;5042061;28;20048;-63
2021/08/14 09:05:29;;;;;;;4.90;4.50;;;26.90;55.70;;;;;;5048163;28;20115;-63
2021/08/14 09:07:54;;;;;;;5.60;4.93;;;26.90;55.70;;;;;;5046554;28;20120;-67
2021/08/14 09:10:25;;;;;;;5.10;4.60;;;26.90;55.80;;;;;;5051180;28;20342;-63
2021/08/14 09:12:51;;;;;;;4.80;4.32;;;26.90;55.80;;;;;;5043003;28;20053;-67
2021/08/14 09:15:31;;;;;;;4.70;4.30;;;26.90;55.80;;;;;;5049478;28;20080;-65
2021/08/14 09:18:05;;;;;;;5.10;4.60;;;27.00;55.90;;;;;;5044846;28;20032;-65
2021/08/14 09:20:33;;;;;;;4.35;3.95;;;26.90;56.00;;;;;;5048488;28;20079;-63
2021/08/14 09:23:10;;;;;;;5.18;4.53;;;26.90;55.80;;;;;;5047415;28;20495;-65
2021/08/14 09:25:50;;;;;;;5.00;4.50;;;26.90;55.80;;;;;;5045556;28;20048;-63
2021/08/14 09:28:39;;;;;;;4.80;4.18;;;26.90;55.80;;;;;;5039063;28;20052;-64
2021/08/14 09:31:06;;;;;;;4.72;4.22;;;26.90;55.80;;;;;;5045028;28;20158;-63
2021/08/14 09:33:37;;;;;;;4.50;4.10;;;27.00;55.90;;;;;;5041765;28;20272;-66
2021/08/14 09:36:07;;;;;;;5.18;4.50;;;26.90;55.80;;;;;;5043905;28;20025;-65
2021/08/14 09:38:52;;;;;;;4.95;4.20;;;26.90;55.80;;;;;;5050061;28;20028;-68
2021/08/14 09:41:17;;;;;;;4.45;4.05;;;27.00;55.90;;;;;;5044563;28;20548;-62
2021/08/14 09:43:45;;;;;;;5.20;4.10;;;27.00;55.90;;;;;;5037691;28;20146;-68
2021/08/14 09:46:11;;;;;;;4.45;4.05;;;27.00;55.80;;;;;;5037040;28;20025;-63
2021/08/14 09:48:37;;;;;;;4.50;3.97;;;27.00;55.80;;;;;;5042164;28;20370;-68
2021/08/14 09:51:04;;;;;;;4.50;4.10;;;27.00;55.80;;;;;;5043482;28;20120;-66
2021/08/14 09:53:29;;;;;;;4.45;3.90;;;27.00;55.80;;;;;;5047208;28;20036;-65
2021/08/14 09:56:10;;;;;;;4.70;4.20;;;27.00;55.80;;;;;;5049435;28;20025;-64
2021/08/14 09:58:38;;;;;;;4.43;4.03;;;27.00;55.80;;;;;;5047679;28;20037;-63
2021/08/14 10:01:05;;;;;;;4.50;4.10;;;27.00;55.80;;;;;;5043080;28;20017;-63
2021/08/14 10:03:32;;;;;;;4.40;4.00;;;27.00;55.80;;;;;;5036224;28;20091;-67
2021/08/14 10:05:59;;;;;;;4.55;4.05;;;27.00;55.80;;;;;;5036396;28;20108;-62
2021/08/14 10:08:34;;;;;;;4.40;4.00;;;27.00;55.80;;;;;;5040783;28;20540;-62
2021/08/14 10:11:04;;;;;;;4.47;3.58;;;27.00;55.80;;;;;;5049152;28;20035;-66
2021/08/14 10:13:32;;;;;;;4.28;3.88;;;27.10;55.90;;;;;;5048330;28;20049;-62
2021/08/14 10:15:58;;;;;;;4.43;4.00;;;27.00;55.80;;;;;;5040614;28;20060;-68
2021/08/14 10:18:23;;;;;;;4.40;3.75;;;27.00;55.80;;;;;;5039266;28;20127;-66
2021/08/14 10:20:49;;;;;;;3.95;3.50;;;27.10;55.90;;;;;;5040185;28;20410;-65
2021/08/14 10:23:23;;;;;;;4.20;3.80;;;27.10;55.80;;;;;;5043200;28;20048;-63
2021/08/14 10:26:01;;;;;;;4.53;3.97;;;27.10;55.80;;;;;;5040190;28;20048;-63
2021/08/14 10:28:50;;;;;;;4.05;3.65;;;27.10;55.80;;;;;;5045900;28;20033;-66
2021/08/14 10:31:30;;;;;;;3.88;3.47;;;27.10;55.70;;;;;;5042920;28;20099;-66
2021/08/14 10:34:12;;;;;;;4.10;3.63;;;27.10;55.60;;;;;;5040315;28;20529;-62
2021/08/14 10:36:43;;;;;;;4.32;3.75;;;27.10;55.60;;;;;;5053468;28;20033;-65
2021/08/14 10:39:28;;;;;;;4.40;4.00;;;27.10;55.60;;;;;;5050935;28;20051;-63
2021/08/14 10:41:57;;;;;;;4.30;3.90;;;27.10;55.60;;;;;;5033328;28;20078;-66
2021/08/14 10:44:48;;;;;;;3.90;3.30;;;27.10;55.60;;;;;;5035362;28;20076;-66
2021/08/14 10:47:44;;;;;;;4.28;3.75;;;27.20;55.50;;;;;;5031266;28;20369;-66
2021/08/14 10:50:30;;;;;;;3.95;3.50;;;27.10;55.50;;;;;;5034871;28;20112;-64
2021/08/14 10:53:11;;;;;;;4.03;3.63;;;27.20;55.60;;;;;;5040389;28;20101;-63
2021/08/14 10:55:41;;;;;;;3.92;3.53;;;27.10;55.70;;;;;;5035892;28;20025;-67
2021/08/14 10:58:30;;;;;;;3.92;3.53;;;27.20;55.60;;;;;;5039604;28;20033;-66
2021/08/14 11:01:05;;;;;;;3.97;3.58;;;27.10;55.50;;;;;;5044389;28;20021;-65
2021/08/14 11:03:36;;;;;;;4.18;3.38;;;27.20;55.70;;;;;;5045259;28;20374;-66
2021/08/14 11:06:28;;;;;;;4.10;3.70;;;27.20;55.70;;;;;;5050934;28;20489;-66
2021/08/14 11:09:20;;;;;;;3.95;3.40;;;27.20;55.80;;;;;;5039164;28;20025;-65
2021/08/14 11:12:02;;;;;;;3.78;3.35;;;27.20;55.70;;;;;;5032457;28;20447;-67
2021/08/14 11:14:45;;;;;;;3.85;3.45;;;27.20;55.70;;;;;;5035980;28;20357;-66
2021/08/14 11:17:12;;;;;;;3.45;3.15;;;27.20;55.70;;;;;;5036345;28;20132;-64
2021/08/14 11:19:57;;;;;;;3.88;3.40;;;27.20;55.70;;;;;;5031721;28;20029;-63
2021/08/14 11:22:55;;;;;;;3.80;3.10;;;27.20;55.70;;;;;;5035570;28;20485;-65
2021/08/14 11:25:39;;;;;;;3.53;3.05;;;27.20;55.70;;;;;;5034927;28;20041;-62
2021/08/14 11:28:10;;;;;;;4.00;3.50;;;27.20;55.70;;;;;;5033681;28;20095;-67
2021/08/14 11:30:44;;;;;;;3.50;2.80;;;27.20;55.80;;;;;;5033660;28;20086;-63
2021/08/14 11:33:12;;;;;;;3.60;3.20;;;27.20;55.80;;;;;;5035692;28;20477;-62
2021/08/14 11:35:40;;;;;;;3.47;3.17;;;27.30;55.80;;;;;;5043390;28;20493;-66
2021/08/14 11:38:07;;;;;;;3.80;3.22;;;27.30;55.80;;;;;;5045225;28;20028;-66
2021/08/14 11:40:39;;;;;;;3.70;3.30;;;27.30;55.80;;;;;;5039766;28;20028;-64
2021/08/14 11:43:06;;;;;;;3.88;3.40;;;27.30;56.40;;;;;;5038459;28;20028;-67
2021/08/14 11:45:34;;;;;;;3.42;3.08;;;27.30;56.20;;;;;;5041067;28;20134;-68
2021/08/14 11:48:06;;;;;;;4.35;3.25;;;27.30;56.20;;;;;;5043346;28;20052;-67
2021/08/14 11:50:47;;;;;;;3.53;3.17;;;27.30;56.20;;;;;;5050307;28;20545;-63
2021/08/14 11:53:23;;;;;;;3.35;3.05;;;27.30;56.10;;;;;;5048044;28;20091;-65
2021/08/14 11:56:06;;;;;;;4.03;3.28;;;27.30;56.10;;;;;;5041936;28;20112;-62
2021/08/14 11:58:31;;;;;;;3.28;2.85;;;27.30;56.10;;;;;;5039574;28;20037;-63
2021/08/14 12:00:58;;;;;;;4.15;3.33;;;27.30;56.10;;;;;;5043341;28;20035;-65
2021/08/14 12:03:24;;;;;;;3.55;3.10;;;27.30;56.10;;;;;;5039011;28;20059;-67
2021/08/14 12:05:50;;;;;;;3.72;3.17;;;27.40;56.20;;;;;;5039833;28;20066;-67
2021/08/14 12:08:31;;;;;;;3.60;3.10;;;27.40;56.20;;;;;;5042851;28;20040;-65
2021/08/14 12:11:01;;;;;;;3.58;3.13;;;27.40;56.40;;;;;;5036726;28;20083;-63
2021/08/14 12:13:27;;;;;;;3.45;2.92;;;27.40;56.40;;;;;;5041207;28;20365;-64
2021/08/14 12:16:13;;;;;;;3.20;2.90;;;27.40;56.40;;;;;;5039242;28;20093;-63
2021/08/14 12:18:42;;;;;;;3.72;3.10;;;27.40;56.60;;;;;;5044747;28;20029;-67
2021/08/14 12:21:08;;;;;;;3.40;2.80;;;27.40;56.60;;;;;;5044773;28;20024;-65
2021/08/14 12:23:36;;;;;;;3.70;3.10;;;27.40;56.50;;;;;;5042875;28;20037;-63
2021/08/14 12:26:05;;;;;;;3.58;3.03;;;27.40;56.50;;;;;;5040741;28;20376;-64
2021/08/14 12:28:36;;;;;;;3.33;2.85;;;27.50;56.70;;;;;;5046507;28;20032;-63
2021/08/14 12:31:18;;;;;;;3.50;3.05;;;27.50;56.60;;;;;;5045809;28;20131;-65
2021/08/14 12:33:55;;;;;;;3.60;2.90;;;27.50;56.60;;;;;;5045495;28;20109;-64
2021/08/14 12:36:35;;;;;;;3.30;2.92;;;27.50;56.80;;;;;;5046068;28;20020;-63
2021/08/14 12:39:02;;;;;;;3.80;2.97;;;27.50;56.50;;;;;;5044837;28;20511;-65
2021/08/14 12:41:34;;;;;;;3.50;2.80;;;27.50;56.50;;;;;;5037630;28;20037;-64
2021/08/14 12:44:00;;;;;;;3.85;3.00;;;27.50;56.80;;;;;;5045954;28;20044;-64
2021/08/14 12:46:26;;;;;;;3.90;2.95;;;27.50;56.80;;;;;;5034518;28;20126;-62
2021/08/14 12:49:20;;;;;;;3.40;2.90;;;27.50;56.90;;;;;;5041959;28;20039;-65
2021/08/14 12:52:03;;;;;;;3.38;3.08;;;27.60;57.00;;;;;;5046547;28;20104;-66
2021/08/14 12:54:31;;;;;;;3.92;2.95;;;27.60;56.80;;;;;;5042588;28;20041;-66